Time;durP1;ratioP1;P1;durP2;ratioP2;P2;SDS_P1;SDS_P2;PMS_P1;PMS_P2;Temp;Humidity;BMP_temperature;BMP_pressure;BME280_temperature;BME280_humidity;BME280_pressure;Samples;Min_cycle;Max_cycle;Signal;HPM_P1;HPM_P2
2023/09/03 00:02:20;;;;;;;22.35;7.32;;;;;;;23.53;100.00;102088.97;5040820;28;20048;-50
2023/09/03 00:04:46;;;;;;;11.75;5.95;;;;;;;23.55;100.00;102084.38;5034677;28;20528;-50
2023/09/03 00:07:13;;;;;;;10.93;5.30;;;;;;;23.65;100.00;102088.81;5050882;28;20044;-49
2023/09/03 00:09:39;;;;;;;13.45;5.72;;;;;;;23.64;100.00;102101.44;5046435;28;20106;-49
2023/09/03 00:12:06;;;;;;;12.60;6.05;;;;;;;23.51;100.00;102099.97;5031334;28;20057;-47
2023/09/03 00:14:32;;;;;;;11.35;5.70;;;;;;;23.53;100.00;102103.16;5037058;28;20080;-46
2023/09/03 00:16:59;;;;;;;11.55;5.88;;;;;;;23.53;100.00;102098.25;5042685;28;20061;-50
2023/09/03 00:19:26;;;;;;;11.90;5.78;;;;;;;23.61;100.00;102096.69;5051228;28;20049;-49
2023/09/03 00:21:52;;;;;;;11.75;5.68;;;;;;;23.50;100.00;102104.09;5051185;28;20049;-48
2023/09/03 00:24:19;;;;;;;14.32;5.82;;;;;;;23.59;100.00;102102.03;5049894;28;20627;-51
2023/09/03 00:26:45;;;;;;;17.42;5.70;;;;;;;23.50;100.00;102093.53;5042324;28;20136;-51
2023/09/03 00:29:12;;;;;;;11.82;5.20;;;;;;;23.57;100.00;102089.56;5042126;28;20832;-49
2023/09/03 00:31:38;;;;;;;10.23;5.20;;;;;;;23.55;100.00;102084.38;5048120;28;20053;-50
2023/09/03 00:34:05;;;;;;;12.95;5.85;;;;;;;23.60;100.00;102085.78;5044216;28;20068;-49
2023/09/03 00:36:31;;;;;;;10.27;5.47;;;;;;;23.60;100.00;102095.13;5041936;28;20049;-50
2023/09/03 00:38:58;;;;;;;9.00;5.07;;;;;;;23.68;100.00;102089.91;5042047;28;20586;-51
2023/09/03 00:41:24;;;;;;;11.73;5.88;;;;;;;23.62;100.00;102094.63;5050790;28;20095;-45
2023/09/03 00:43:51;;;;;;;11.05;5.75;;;;;;;23.62;100.00;102100.31;5043156;28;20045;-48
2023/09/03 00:46:17;;;;;;;11.52;5.47;;;;;;;23.76;100.00;102116.72;5047321;28;20144;-51
2023/09/03 00:48:44;;;;;;;11.95;5.50;;;;;;;23.71;100.00;102115.31;5046088;28;20487;-49
2023/09/03 00:51:11;;;;;;;11.52;5.38;;;;;;;23.64;100.00;102121.31;5049542;28;20072;-49
2023/09/03 00:53:43;;;;;;;12.52;5.82;;;;;;;23.62;100.00;102120.97;5050338;28;20680;-49
2023/09/03 00:56:10;;;;;;;12.88;5.47;;;;;;;23.59;100.00;102121.13;5050657;28;20507;-51
2023/09/03 00:58:37;;;;;;;10.23;5.45;;;;;;;23.51;100.00;102117.00;5046534;28;20107;-47
2023/09/03 01:01:05;;;;;;;10.73;5.07;;;;;;;23.49;100.00;102128.06;5028257;28;20044;-51
2023/09/03 01:03:32;;;;;;;10.60;5.15;;;;;;;23.45;100.00;102124.59;5050268;28;20041;-47
2023/09/03 01:06:02;;;;;;;11.27;5.53;;;;;;;23.50;100.00;102129.63;5045872;28;20053;-51
2023/09/03 01:08:29;;;;;;;13.52;5.47;;;;;;;23.38;100.00;102124.91;5050250;28;20164;-48
2023/09/03 01:11:04;;;;;;;10.55;5.30;;;;;;;23.43;100.00;102127.91;5049105;28;20148;-49
2023/09/03 01:13:40;;;;;;;11.10;5.80;;;;;;;23.36;100.00;102138.78;5047988;28;20082;-47
2023/09/03 01:16:22;;;;;;;13.25;5.70;;;;;;;23.36;100.00;102135.94;5040174;28;20053;-47
2023/09/03 01:18:50;;;;;;;13.48;5.57;;;;;;;23.32;100.00;102136.09;5050136;28;20060;-48
2023/09/03 01:21:23;;;;;;;10.98;5.38;;;;;;;23.28;100.00;102131.81;5045611;28;20136;-49
2023/09/03 01:23:52;;;;;;;10.98;5.45;;;;;;;23.31;100.00;102125.22;5034928;28;20089;-50
2023/09/03 01:26:49;;;;;;;10.82;5.30;;;;;;;23.31;100.00;102116.69;5043868;28;20146;-49
2023/09/03 01:29:18;;;;;;;10.88;5.72;;;;;;;23.29;100.00;102116.41;5044607;28;20045;-46
2023/09/03 01:31:45;;;;;;;9.68;5.18;;;;;;;23.23;100.00;102113.41;5049440;28;20068;-49
2023/09/03 01:34:12;;;;;;;13.43;5.10;;;;;;;23.25;100.00;102119.38;5048844;28;20056;-48
2023/09/03 01:36:39;;;;;;;8.82;5.13;;;;;;;23.25;100.00;102122.22;5049535;28;20053;-49
2023/09/03 01:39:06;;;;;;;12.15;5.45;;;;;;;23.26;100.00;102120.94;5044342;28;20048;-50
2023/09/03 01:41:37;;;;;;;9.07;5.50;;;;;;;23.20;100.00;102128.53;5038510;28;20111;-48
2023/09/03 01:44:09;;;;;;;10.43;5.13;;;;;;;23.22;100.00;102142.25;5039779;28;20464;-46
2023/09/03 01:46:47;;;;;;;8.85;4.78;;;;;;;23.21;100.00;102129.31;5048723;28;20057;-50
2023/09/03 01:49:19;;;;;;;10.13;5.28;;;;;;;23.16;100.00;102125.06;5049023;28;20045;-48
2023/09/03 01:52:09;;;;;;;10.77;5.55;;;;;;;23.19;100.00;102129.00;5049757;28;20053;-44
2023/09/03 01:54:41;;;;;;;14.20;5.13;;;;;;;23.18;100.00;102127.41;5034351;28;20076;-49
2023/09/03 01:57:12;;;;;;;12.23;5.53;;;;;;;23.18;100.00;102133.88;5040892;28;20132;-49
2023/09/03 01:59:43;;;;;;;10.73;5.47;;;;;;;23.17;100.00;102125.84;5045714;28;20103;-48
2023/09/03 02:02:10;;;;;;;10.52;5.35;;;;;;;23.17;100.00;102128.69;5038416;28;20127;-49
2023/09/03 02:04:37;;;;;;;11.45;5.40;;;;;;;23.16;100.00;102119.41;5040180;28;20056;-47
2023/09/03 02:07:04;;;;;;;10.05;5.00;;;;;;;23.12;100.00;102117.97;5035781;28;20049;-48
2023/09/03 02:09:31;;;;;;;10.50;5.40;;;;;;;23.16;100.00;102115.75;5033751;28;20091;-46
2023/09/03 02:11:58;;;;;;;11.48;5.20;;;;;;;23.13;100.00;102116.69;5037952;28;20508;-50
2023/09/03 02:14:26;;;;;;;10.18;5.40;;;;;;;23.18;100.00;102111.19;5048543;28;20092;-47
2023/09/03 02:16:53;;;;;;;10.48;5.07;;;;;;;23.05;100.00;102121.88;5047622;28;20067;-44
2023/09/03 02:19:20;;;;;;;7.90;4.57;;;;;;;23.07;100.00;102132.75;5031341;28;20044;-49
2023/09/03 02:21:48;;;;;;;10.40;5.28;;;;;;;23.10;100.00;102131.81;5048508;28;20122;-48
2023/09/03 02:24:15;;;;;;;11.55;5.53;;;;;;;23.13;100.00;102130.88;5028508;28;20053;-47
2023/09/03 02:26:43;;;;;;;8.90;4.75;;;;;;;23.13;100.00;102137.34;5043929;28;20099;-48
2023/09/03 02:29:11;;;;;;;9.45;4.90;;;;;;;23.12;100.00;102132.94;5039765;28;20053;-47
2023/09/03 02:31:37;;;;;;;9.82;5.07;;;;;;;23.11;100.00;102136.22;5048191;28;20053;-47
2023/09/03 02:34:06;;;;;;;8.63;4.72;;;;;;;23.12;100.00;102140.66;5031232;28;20075;-49
2023/09/03 02:36:34;;;;;;;11.73;5.20;;;;;;;23.12;100.00;102149.94;5043530;28;20119;-50
2023/09/03 02:39:07;;;;;;;12.13;5.05;;;;;;;23.11;100.00;102159.72;5046810;28;20052;-49
2023/09/03 02:41:34;;;;;;;10.23;5.15;;;;;;;23.17;100.00;102165.56;5042729;28;20049;-48
2023/09/03 02:44:02;;;;;;;11.68;5.53;;;;;;;23.12;100.00;102174.72;5048167;28;20146;-47
2023/09/03 02:46:29;;;;;;;8.30;4.80;;;;;;;23.07;100.00;102180.97;5048581;28;20101;-45
2023/09/03 02:48:55;;;;;;;11.10;4.70;;;;;;;23.08;100.00;102180.50;5028760;28;20044;-48
2023/09/03 02:51:22;;;;;;;9.75;4.85;;;;;;;23.10;100.00;102161.00;5029292;28;20091;-47
2023/09/03 02:53:51;;;;;;;8.95;5.43;;;;;;;23.08;100.00;102154.97;5043924;28;20053;-48
2023/09/03 02:56:18;;;;;;;10.43;5.07;;;;;;;23.09;100.00;102141.59;5048341;28;20053;-47
2023/09/03 02:58:46;;;;;;;9.27;4.82;;;;;;;23.10;100.00;102143.97;5049106;28;20103;-50
2023/09/03 03:01:15;;;;;;;9.93;5.07;;;;;;;23.05;100.00;102141.75;5046408;28;20130;-48
2023/09/03 03:03:41;;;;;;;10.65;5.40;;;;;;;23.05;100.00;102133.22;5045601;28;20140;-43
2023/09/03 03:06:09;;;;;;;13.40;4.95;;;;;;;23.09;100.00;102144.44;5046771;28;20053;-50
2023/09/03 03:08:36;;;;;;;9.32;4.80;;;;;;;23.08;100.00;102128.69;5051531;28;20419;-47
2023/09/03 03:11:15;;;;;;;10.38;5.07;;;;;;;23.05;100.00;102130.41;5052416;28;20482;-48
2023/09/03 03:13:43;;;;;;;8.05;4.50;;;;;;;23.08;100.00;102112.44;5052006;28;20056;-45
2023/09/03 03:16:15;;;;;;;9.55;4.50;;;;;;;23.04;100.00;102111.00;5049044;28;20103;-49
2023/09/03 03:18:43;;;;;;;13.15;5.13;;;;;;;23.07;100.00;102115.75;5045887;28;20053;-45
2023/09/03 03:21:14;;;;;;;10.25;4.80;;;;;;;23.10;100.00;102101.41;5043927;28;20065;-49
2023/09/03 03:23:42;;;;;;;9.75;5.13;;;;;;;23.04;100.00;102099.66;5052460;28;20081;-47
2023/09/03 03:26:08;;;;;;;9.27;4.78;;;;;;;23.10;100.00;102092.91;5051911;28;20049;-47
2023/09/03 03:28:35;;;;;;;9.35;5.00;;;;;;;23.12;100.00;102095.28;5050386;28;20080;-47
2023/09/03 03:31:20;;;;;;;9.45;4.70;;;;;;;23.09;100.00;102096.22;5045239;28;20041;-48
2023/09/03 03:33:47;;;;;;;11.68;5.10;;;;;;;23.07;100.00;102098.72;5045397;28;20518;-48
2023/09/03 03:36:16;;;;;;;8.27;4.60;;;;;;;23.05;100.00;102101.25;5043644;28;20423;-49
2023/09/03 03:38:43;;;;;;;9.27;4.57;;;;;;;23.10;100.00;102109.94;5051604;28;20048;-50
2023/09/03 03:41:18;;;;;;;10.80;4.97;;;;;;;23.09;100.00;102119.69;5051011;28;20053;-48
2023/09/03 03:43:47;;;;;;;9.85;5.10;;;;;;;23.08;100.00;102134.34;5041241;28;20462;-49
2023/09/03 03:46:16;;;;;;;7.63;4.30;;;;;;;23.08;100.00;102142.88;5040160;28;20053;-47
2023/09/03 03:48:43;;;;;;;11.50;4.78;;;;;;;23.07;100.00;102146.94;5041371;28;20401;-49
2023/09/03 03:51:10;;;;;;;8.55;4.63;;;;;;;23.02;100.00;102141.91;5039272;28;20053;-47
2023/09/03 03:53:37;;;;;;;9.88;4.53;;;;;;;23.03;100.00;102149.16;5045864;28;20053;-48
2023/09/03 03:56:05;;;;;;;10.07;5.30;;;;;;;23.06;100.00;102148.22;5051028;28;20057;-49
2023/09/03 03:58:34;;;;;;;9.85;4.72;;;;;;;23.04;100.00;102148.69;5044985;28;20449;-47
2023/09/03 04:01:20;;;;;;;8.38;4.45;;;;;;;23.05;100.00;102152.31;5035016;28;20053;-47
2023/09/03 04:03:48;;;;;;;9.02;4.85;;;;;;;23.02;100.00;102154.03;5050663;28;20267;-46
2023/09/03 04:06:16;;;;;;;8.80;4.55;;;;;;;23.06;100.00;102154.69;5045772;28;20049;-49
2023/09/03 04:08:45;;;;;;;9.00;4.50;;;;;;;22.97;100.00;102159.53;5036172;28;20050;-47
2023/09/03 04:11:13;;;;;;;8.07;4.60;;;;;;;22.98;100.00;102167.56;5044883;28;20045;-47
2023/09/03 04:13:41;;;;;;;10.20;5.32;;;;;;;23.05;100.00;102169.34;5045527;28;20053;-47
2023/09/03 04:16:14;;;;;;;12.02;4.75;;;;;;;23.02;100.00;102175.94;5050816;28;20080;-47
2023/09/03 04:18:41;;;;;;;9.40;4.88;;;;;;;22.99;100.00;102188.22;5050804;28;20079;-47
2023/09/03 04:21:07;;;;;;;11.23;4.63;;;;;;;23.00;100.00;102189.78;5050766;28;20051;-46
2023/09/03 04:23:34;;;;;;;8.40;4.72;;;;;;;23.00;100.00;102203.97;5050960;28;20174;-47
2023/09/03 04:26:01;;;;;;;9.57;4.72;;;;;;;23.02;100.00;102202.25;5037112;28;20081;-47
2023/09/03 04:28:28;;;;;;;9.02;4.75;;;;;;;23.02;100.00;102205.06;5050688;28;20094;-50
2023/09/03 04:30:57;;;;;;;9.10;4.32;;;;;;;23.06;100.00;102208.59;5045846;28;20126;-47
2023/09/03 04:33:23;;;;;;;9.48;4.65;;;;;;;22.97;100.00;102205.72;5033058;28;20053;-48
2023/09/03 04:35:58;;;;;;;14.23;6.15;;;;;;;23.02;100.00;102210.75;5049997;28;20049;-48
2023/09/03 04:38:27;;;;;;;10.32;4.47;;;;;;;22.97;100.00;102202.88;5049999;28;20049;-48
2023/09/03 04:40:54;;;;;;;8.48;4.45;;;;;;;23.00;100.00;102203.97;5049346;28;20056;-49
2023/09/03 04:43:20;;;;;;;11.43;5.30;;;;;;;23.00;100.00;102204.78;5050043;28;20107;-48
2023/09/03 04:45:48;;;;;;;10.60;4.68;;;;;;;22.99;100.00;102197.53;5049616;28;20057;-47
2023/09/03 04:48:15;;;;;;;9.07;5.22;;;;;;;22.96;100.00;102197.63;5050389;28;20578;-47
2023/09/03 04:50:42;;;;;;;10.02;4.43;;;;;;;22.94;100.00;102195.25;5050307;28;20531;-49
2023/09/03 04:53:09;;;;;;;8.43;4.57;;;;;;;22.98;100.00;102192.31;5045728;28;20049;-47
2023/09/03 04:55:35;;;;;;;8.75;4.93;;;;;;;22.96;100.00;102198.47;5043411;28;20415;-47
2023/09/03 04:58:02;;;;;;;8.77;4.43;;;;;;;23.00;100.00;102201.13;5029640;28;20820;-47
2023/09/03 05:00:30;;;;;;;6.68;3.97;;;;;;;23.01;100.00;102197.03;5043045;28;20049;-49
2023/09/03 05:02:57;;;;;;;7.97;4.32;;;;;;;22.97;100.00;102196.41;5035646;28;20130;-47
2023/09/03 05:05:24;;;;;;;7.93;4.22;;;;;;;23.00;100.00;102212.47;5049400;28;20084;-48
2023/09/03 05:07:51;;;;;;;7.43;4.32;;;;;;;23.00;100.00;102209.66;5048809;28;20053;-48
2023/09/03 05:10:18;;;;;;;10.65;4.90;;;;;;;22.99;100.00;102210.91;5049781;28;20040;-47
2023/09/03 05:12:44;;;;;;;7.45;4.32;;;;;;;22.96;100.00;102217.50;5049626;28;20138;-49
2023/09/03 05:15:12;;;;;;;12.20;4.82;;;;;;;22.99;100.00;102210.91;5045123;28;20411;-48
2023/09/03 05:17:39;;;;;;;9.98;4.72;;;;;;;22.94;100.00;102217.97;5030475;28;20092;-46
2023/09/03 05:20:10;;;;;;;8.10;4.28;;;;;;;22.98;100.00;102237.72;5047461;28;20102;-49
2023/09/03 05:22:38;;;;;;;7.88;4.55;;;;;;;22.98;100.00;102240.53;5049663;28;20049;-44
2023/09/03 05:25:05;;;;;;;5.93;3.88;;;;;;;22.95;100.00;102241.44;5048773;28;20817;-49
2023/09/03 05:27:31;;;;;;;10.63;4.65;;;;;;;22.99;100.00;102244.94;5049074;28;20565;-47
2023/09/03 05:30:00;;;;;;;9.63;4.20;;;;;;;22.99;100.00;102247.78;5032167;28;20222;-49
2023/09/03 05:32:27;;;;;;;9.43;4.90;;;;;;;22.97;100.00;102239.75;5048422;28;20053;-46
2023/09/03 05:34:53;;;;;;;8.90;4.60;;;;;;;22.96;100.00;102251.53;5047104;28;20681;-47
2023/09/03 05:37:20;;;;;;;10.25;4.90;;;;;;;22.95;100.00;102247.13;5044957;28;20122;-49
2023/09/03 05:39:46;;;;;;;9.25;4.57;;;;;;;22.96;100.00;102251.53;5044726;28;20045;-48
2023/09/03 05:42:13;;;;;;;9.18;4.72;;;;;;;22.99;100.00;102256.28;5045834;28;20135;-47
2023/09/03 05:44:39;;;;;;;9.88;4.03;;;;;;;22.97;100.00;102255.97;5041834;28;20463;-47
2023/09/03 05:47:06;;;;;;;8.70;4.43;;;;;;;22.95;100.00;102253.56;5031825;28;20110;-49
2023/09/03 05:49:34;;;;;;;11.98;4.78;;;;;;;22.89;100.00;102255.44;5040947;28;20081;-49
2023/09/03 05:52:00;;;;;;;13.70;6.78;;;;;;;22.64;100.00;102261.31;5046150;28;20114;-47
2023/09/03 05:54:27;;;;;;;15.00;6.30;;;;;;;22.84;100.00;102258.88;5047908;28;20486;-48
2023/09/03 05:56:54;;;;;;;11.85;6.07;;;;;;;22.80;100.00;102263.91;5045189;28;20738;-46
2023/09/03 05:59:20;;;;;;;11.40;6.13;;;;;;;22.76;100.00;102270.97;5040842;28;20090;-47
2023/09/03 06:01:47;;;;;;;11.98;6.05;;;;;;;22.58;100.00;102276.56;5049102;28;20077;-47
2023/09/03 06:04:16;;;;;;;13.98;6.18;;;;;;;22.54;100.00;102282.34;5045849;28;20052;-47
2023/09/03 06:06:43;;;;;;;15.68;6.40;;;;;;;22.59;100.00;102290.25;5046642;28;20538;-47
2023/09/03 06:09:09;;;;;;;14.95;6.38;;;;;;;22.63;100.00;102284.44;5048512;28;20683;-47
2023/09/03 06:11:36;;;;;;;14.25;6.30;;;;;;;22.72;100.00;102299.47;5048817;28;20049;-47
2023/09/03 06:14:03;;;;;;;12.00;6.03;;;;;;;22.35;100.00;102289.16;5029786;28;20519;-47
2023/09/03 06:16:29;;;;;;;15.70;7.13;;;;;;;21.88;100.00;102286.38;5047476;28;20053;-48
2023/09/03 06:18:56;;;;;;;13.13;6.32;;;;;;;22.20;100.00;102293.72;5030076;28;20059;-45
2023/09/03 06:21:24;;;;;;;13.90;6.97;;;;;;;22.45;100.00;102296.47;5045690;28;20080;-46
2023/09/03 06:23:51;;;;;;;14.68;7.20;;;;;;;22.44;100.00;102314.72;5048053;28;20045;-46
2023/09/03 06:26:17;;;;;;;17.20;7.75;;;;;;;22.13;100.00;102318.72;5046600;28;20045;-46
2023/09/03 06:28:44;;;;;;;16.25;8.25;;;;;;;21.92;100.00;102314.59;5046959;28;20495;-47
2023/09/03 06:31:10;;;;;;;16.48;7.93;;;;;;;21.69;100.00;102312.97;5048121;28;20106;-48
2023/09/03 06:33:39;;;;;;;19.00;8.13;;;;;;;21.91;100.00;102327.94;5043939;28;20529;-48
2023/09/03 06:36:06;;;;;;;16.73;7.70;;;;;;;22.31;100.00;102333.06;5031702;28;20057;-47
2023/09/03 06:38:32;;;;;;;15.10;7.72;;;;;;;22.45;100.00;102341.81;5030018;28;20135;-45
2023/09/03 06:40:59;;;;;;;16.35;9.00;;;;;;;21.91;100.00;102338.50;5047464;28;20068;-48
2023/09/03 06:43:25;;;;;;;15.63;8.50;;;;;;;21.73;100.00;102336.28;5046400;28;20052;-47
2023/09/03 06:45:52;;;;;;;20.27;8.88;;;;;;;22.15;100.00;102351.00;5039267;28;20644;-48
2023/09/03 06:48:18;;;;;;;16.55;7.13;;;;;;;22.38;100.00;102344.13;5040188;28;20114;-50
2023/09/03 06:50:46;;;;;;;13.90;7.05;;;;;;;22.46;100.00;102362.44;5048222;28;20053;-47
2023/09/03 06:53:12;;;;;;;16.02;7.53;;;;;;;22.47;100.00;102361.97;5043447;28;20068;-47
2023/09/03 06:55:39;;;;;;;16.40;7.10;;;;;;;22.58;100.00;102373.69;5043979;28;20126;-48
2023/09/03 06:58:05;;;;;;;22.42;8.25;;;;;;;22.64;100.00;102371.09;5046806;28;20446;-47
2023/09/03 07:00:34;;;;;;;18.67;8.90;;;;;;;22.65;100.00;102378.34;5042539;28;20076;-49
2023/09/03 07:03:01;;;;;;;19.55;8.63;;;;;;;22.62;100.00;102380.06;5048563;28;20045;-47
2023/09/03 07:05:28;;;;;;;18.15;9.38;;;;;;;22.58;100.00;102372.94;5046342;28;20646;-47
2023/09/03 07:07:55;;;;;;;17.60;8.15;;;;;;;22.60;100.00;102390.25;5040946;28;20061;-48
2023/09/03 07:10:21;;;;;;;20.80;10.38;;;;;;;22.52;100.00;102381.25;5039594;28;20037;-48
2023/09/03 07:12:48;;;;;;;18.67;10.18;;;;;;;22.55;100.00;102385.19;5029440;28;20061;-48
2023/09/03 07:15:15;;;;;;;19.35;11.50;;;;;;;22.32;100.00;102382.78;5043480;28;20119;-47
2023/09/03 07:17:41;;;;;;;19.38;11.35;;;;;;;22.52;100.00;102389.75;5041797;28;20499;-47
2023/09/03 07:20:08;;;;;;;24.77;11.60;;;;;;;22.47;100.00;102387.47;5047973;28;20415;-48
2023/09/03 07:22:35;;;;;;;18.70;10.48;;;;;;;22.36;100.00;102392.75;5047489;28;20049;-48
2023/09/03 07:25:01;;;;;;;22.27;12.00;;;;;;;22.13;100.00;102398.81;5044097;28;20132;-47
2023/09/03 07:27:28;;;;;;;21.55;12.55;;;;;;;21.73;100.00;102390.06;5045047;28;20579;-50
2023/09/03 07:29:54;;;;;;;19.98;11.32;;;;;;;21.91;100.00;102392.31;5043048;28;20077;-47
2023/09/03 07:32:21;;;;;;;25.27;12.80;;;;;;;21.90;100.00;102391.50;5025578;28;20462;-48
2023/09/03 07:34:50;;;;;;;20.17;11.07;;;;;;;21.91;100.00;102387.41;5020683;28;20542;-47
2023/09/03 07:37:17;;;;;;;22.45;11.75;;;;;;;21.54;100.00;102388.22;5023052;28;20453;-46
2023/09/03 07:39:45;;;;;;;23.75;13.57;;;;;;;21.69;100.00;102392.22;5044579;28;20037;-46
2023/09/03 07:42:12;;;;;;;21.48;12.45;;;;;;;21.27;100.00;102387.91;5038536;28;20045;-47
2023/09/03 07:44:39;;;;;;;21.10;12.25;;;;;;;21.75;100.00;102396.06;5036524;28;20083;-47
2023/09/03 07:47:06;;;;;;;21.25;11.60;;;;;;;22.10;100.00;102409.00;5047713;28;20062;-45
2023/09/03 07:49:33;;;;;;;23.00;11.27;;;;;;;22.20;100.00;102417.59;5042473;28;20477;-47
2023/09/03 07:51:59;;;;;;;21.27;11.90;;;;;;;22.04;100.00;102407.22;5028785;28;20049;-44
2023/09/03 07:54:26;;;;;;;21.50;11.95;;;;;;;21.66;100.00;102420.63;5049364;28;20060;-46
2023/09/03 07:56:54;;;;;;;21.95;11.10;;;;;;;22.17;100.00;102417.25;5051070;28;20399;-48
2023/09/03 07:59:21;;;;;;;20.33;11.45;;;;;;;22.04;100.00;102418.56;5043390;28;20047;-47
2023/09/03 08:01:47;;;;;;;20.40;12.20;;;;;;;21.86;100.00;102419.16;5047177;28;20122;-48
2023/09/03 08:04:14;;;;;;;22.33;12.85;;;;;;;21.79;100.00;102410.91;5051146;28;20053;-50
2023/09/03 08:06:40;;;;;;;22.48;12.27;;;;;;;21.79;100.00;102413.72;5044767;28;20049;-47
2023/09/03 08:09:08;;;;;;;21.17;12.73;;;;;;;21.94;100.00;102403.50;5045429;28;20045;-47
2023/09/03 08:11:36;;;;;;;26.13;11.85;;;;;;;22.01;100.00;102411.75;5051028;28;20110;-49
2023/09/03 08:14:03;;;;;;;23.33;14.05;;;;;;;21.71;100.00;102415.19;5049969;28;20063;-48
2023/09/03 08:16:30;;;;;;;25.48;13.13;;;;;;;21.87;100.00;102422.75;5050045;28;20111;-47
2023/09/03 08:18:56;;;;;;;23.75;14.68;;;;;;;21.55;100.00;102414.50;5051098;28;20057;-50
2023/09/03 08:21:23;;;;;;;26.23;15.82;;;;;;;21.24;100.00;102410.66;5049607;28;20045;-46
2023/09/03 08:23:49;;;;;;;25.27;14.52;;;;;;;21.52;100.00;102416.22;5049714;28;20053;-46
2023/09/03 08:26:16;;;;;;;22.65;13.88;;;;;;;21.79;100.00;102410.09;5046159;28;20503;-48
2023/09/03 08:28:42;;;;;;;24.85;14.82;;;;;;;21.57;100.00;102407.13;5049996;28;20071;-46
2023/09/03 08:31:09;;;;;;;23.92;13.40;;;;;;;21.62;100.00;102408.59;5044916;28;20045;-49
2023/09/03 08:33:37;;;;;;;24.52;15.00;;;;;;;21.38;100.00;102396.84;5047170;28;21764;-47
2023/09/03 08:36:04;;;;;;;25.30;14.88;;;;;;;21.62;100.00;102400.13;5048617;28;20535;-48
2023/09/03 08:38:30;;;;;;;21.90;13.63;;;;;;;21.71;100.00;102397.44;5050212;28;20048;-49
2023/09/03 08:40:57;;;;;;;26.38;15.30;;;;;;;21.76;100.00;102397.66;5047838;28;20553;-47
2023/09/03 08:43:25;;;;;;;29.70;13.98;;;;;;;22.09;100.00;102398.13;5048267;28;20518;-47
2023/09/03 08:46:00;;;;;;;24.55;14.30;;;;;;;22.21;100.00;102391.66;5040045;28;20041;-48
2023/09/03 08:48:27;;;;;;;26.27;13.35;;;;;;;22.27;100.00;102392.63;5037215;28;20048;-47
2023/09/03 08:50:54;;;;;;;22.95;13.07;;;;;;;22.35;100.00;102396.03;5050390;28;20076;-49
2023/09/03 08:53:22;;;;;;;26.13;13.75;;;;;;;22.36;100.00;102387.09;5042718;28;20072;-48
2023/09/03 08:55:49;;;;;;;24.45;13.35;;;;;;;22.40;100.00;102395.44;5049571;28;20084;-50
2023/09/03 08:58:15;;;;;;;24.95;14.15;;;;;;;22.41;100.00;102394.97;5050400;28;20056;-47
2023/09/03 09:00:42;;;;;;;26.50;13.70;;;;;;;22.45;100.00;102401.34;5025851;28;20057;-48
2023/09/03 09:03:13;;;;;;;24.30;13.95;;;;;;;22.48;100.00;102399.63;5047778;28;20088;-49
2023/09/03 09:05:42;;;;;;;21.33;13.15;;;;;;;22.51;100.00;102401.53;5046476;28;20470;-50
2023/09/03 09:08:08;;;;;;;25.65;12.77;;;;;;;22.52;100.00;102395.41;5049490;28;20699;-47
2023/09/03 09:10:40;;;;;;;18.85;10.63;;;;;;;22.58;100.00;102401.28;5049038;28;20072;-48
2023/09/03 09:13:08;;;;;;;20.65;12.05;;;;;;;22.59;100.00;102411.34;5044523;28;20052;-48
2023/09/03 09:15:36;;;;;;;22.20;11.25;;;;;;;22.61;100.00;102417.38;5048694;28;20053;-47
2023/09/03 09:18:10;;;;;;;21.52;10.43;;;;;;;22.64;100.00;102420.06;5043588;28;20060;-47
2023/09/03 09:20:40;;;;;;;20.52;11.82;;;;;;;22.65;100.00;102429.34;5048169;28;20053;-48
2023/09/03 09:23:08;;;;;;;24.58;14.13;;;;;;;22.66;100.00;102428.09;5049315;28;20084;-47
2023/09/03 09:25:35;;;;;;;23.52;13.13;;;;;;;22.68;100.00;102432.03;5047803;28;20529;-50
2023/09/03 09:28:13;;;;;;;25.30;12.43;;;;;;;22.71;100.00;102425.47;5035720;28;20500;-48
2023/09/03 09:30:57;;;;;;;21.05;11.73;;;;;;;22.72;100.00;102432.72;5049734;28;20079;-48
2023/09/03 09:33:25;;;;;;;20.07;11.40;;;;;;;22.74;100.00;102437.94;5049539;28;20139;-48
2023/09/03 09:35:53;;;;;;;19.73;10.13;;;;;;;22.75;100.00;102425.34;5043046;28;20128;-46
2023/09/03 09:38:34;;;;;;;18.90;10.73;;;;;;;22.75;100.00;102428.94;5047742;28;20139;-46
2023/09/03 09:41:26;;;;;;;23.08;11.40;;;;;;;22.77;100.00;102426.44;5044345;28;20076;-47
2023/09/03 09:43:53;;;;;;;18.20;9.88;;;;;;;22.78;100.00;102422.34;5042828;28;20053;-48
2023/09/03 09:46:33;;;;;;;17.48;10.05;;;;;;;22.77;100.00;102423.63;5047916;28;20137;-47
2023/09/03 09:49:01;;;;;;;18.60;8.65;;;;;;;22.80;100.00;102424.72;5047676;28;20110;-47
2023/09/03 09:51:29;;;;;;;18.60;9.32;;;;;;;22.81;100.00;102420.66;5048973;28;20069;-48
2023/09/03 09:53:58;;;;;;;18.45;7.95;;;;;;;22.82;100.00;102417.38;5043672;28;20493;-48
2023/09/03 09:56:27;;;;;;;18.75;8.93;;;;;;;22.84;100.00;102426.19;5043366;28;20463;-47
2023/09/03 09:58:54;;;;;;;17.52;8.38;;;;;;;22.84;100.00;102414.03;5045775;28;20530;-49
2023/09/03 10:01:20;;;;;;;22.98;10.38;;;;;;;22.85;100.00;102421.31;5049058;28;20098;-50
2023/09/03 10:03:48;;;;;;;20.67;9.60;;;;;;;22.86;100.00;102425.72;5048726;28;20049;-48
2023/09/03 10:06:16;;;;;;;20.00;9.93;;;;;;;22.62;100.00;102424.59;5048894;28;20150;-50
2023/09/03 10:08:47;;;;;;;22.48;9.25;;;;;;;22.84;100.00;102416.88;5047022;28;20084;-46
2023/09/03 10:11:18;;;;;;;18.15;8.52;;;;;;;22.84;100.00;102416.88;5043920;28;20049;-49
2023/09/03 10:13:47;;;;;;;22.75;10.07;;;;;;;22.87;100.00;102421.63;5047582;28;20049;-49
2023/09/03 10:16:17;;;;;;;19.15;8.43;;;;;;;22.91;100.00;102420.25;5048326;28;20053;-50
2023/09/03 10:18:46;;;;;;;23.88;8.50;;;;;;;22.92;100.00;102427.50;5042001;28;20100;-48
2023/09/03 10:21:17;;;;;;;18.48;8.85;;;;;;;22.91;100.00;102428.75;5045702;28;20091;-50
2023/09/03 10:23:50;;;;;;;17.77;8.45;;;;;;;22.94;100.00;102418.53;5042295;28;20578;-49
2023/09/03 10:26:20;;;;;;;18.42;8.57;;;;;;;22.95;100.00;102425.78;5046124;28;20463;-47
2023/09/03 10:28:50;;;;;;;19.63;8.43;;;;;;;22.94;100.00;102427.84;5048019;28;20045;-48
2023/09/03 10:31:17;;;;;;;16.20;7.50;;;;;;;22.96;100.00;102428.19;5042622;28;20080;-47
2023/09/03 10:33:44;;;;;;;16.58;7.75;;;;;;;22.94;100.00;102435.53;5044311;28;20049;-48
2023/09/03 10:36:18;;;;;;;16.48;7.70;;;;;;;22.97;100.00;102428.97;5046466;28;20045;-47
2023/09/03 10:38:45;;;;;;;18.65;8.82;;;;;;;22.98;100.00;102427.75;5037129;28;20081;-49
2023/09/03 10:41:25;;;;;;;17.10;7.63;;;;;;;22.98;100.00;102436.25;5046995;28;20064;-51
2023/09/03 10:43:53;;;;;;;15.48;7.78;;;;;;;22.98;100.00;102433.41;5042448;28;20482;-47
2023/09/03 10:46:25;;;;;;;15.02;7.60;;;;;;;22.99;100.00;102438.63;5039422;28;20072;-47
2023/09/03 10:48:53;;;;;;;15.35;7.88;;;;;;;23.00;100.00;102433.72;5029633;28;20278;-48
2023/09/03 10:51:37;;;;;;;15.32;7.78;;;;;;;22.98;100.00;102431.34;5038990;28;20052;-49
2023/09/03 10:54:14;;;;;;;15.60;6.77;;;;;;;22.99;100.00;102432.94;5038881;28;20068;-50
2023/09/03 10:57:06;;;;;;;14.93;6.97;;;;;;;23.00;100.00;102428.06;5042127;28;20163;-47
2023/09/03 10:59:57;;;;;;;14.32;6.97;;;;;;;23.00;100.00;102428.06;5047020;28;20061;-47
2023/09/03 11:02:25;;;;;;;14.65;6.82;;;;;;;22.99;100.00;102423.66;5040629;28;20099;-50
2023/09/03 11:05:10;;;;;;;15.27;7.07;;;;;;;23.00;100.00;102428.06;5046996;28;20045;-48
2023/09/03 11:07:37;;;;;;;15.20;6.78;;;;;;;22.98;100.00;102428.50;5041805;28;20546;-47
2023/09/03 11:10:24;;;;;;;13.90;7.20;;;;;;;22.98;100.00;102419.22;5045393;28;20056;-48
2023/09/03 11:12:52;;;;;;;16.50;7.47;;;;;;;22.98;100.00;102413.56;5046462;28;20057;-50
2023/09/03 11:15:19;;;;;;;15.90;7.95;;;;;;;22.97;100.00;102409.13;5035931;28;20046;-47
2023/09/03 11:17:56;;;;;;;15.65;7.38;;;;;;;22.98;100.00;102416.41;5031765;28;20080;-47